sensor_id;sensor_type;location;lat;lon;timestamp;temperature;humidity
43320;DHT22;28914;48.722;9.332;2023-09-08T00:03:25;18.80;73.00
43320;DHT22;28914;48.722;9.332;2023-09-08T00:08:45;18.80;73.10
43320;DHT22;28914;48.722;9.332;2023-09-08T00:14:04;18.80;73.60
43320;DHT22;28914;48.722;9.332;2023-09-08T00:19:23;18.70;73.90
43320;DHT22;28914;48.722;9.332;2023-09-08T00:24:42;18.60;73.70
43320;DHT22;28914;48.722;9.332;2023-09-08T00:30:01;18.60;73.80
43320;DHT22;28914;48.722;9.332;2023-09-08T00:35:20;18.50;74.00
43320;DHT22;28914;48.722;9.332;2023-09-08T00:40:40;18.40;74.10
43320;DHT22;28914;48.722;9.332;2023-09-08T00:45:59;18.40;74.10
43320;DHT22;28914;48.722;9.332;2023-09-08T00:51:21;18.30;74.30
43320;DHT22;28914;48.722;9.332;2023-09-08T00:56:41;18.30;74.50
43320;DHT22;28914;48.722;9.332;2023-09-08T01:02:02;18.20;74.50
43320;DHT22;28914;48.722;9.332;2023-09-08T01:07:21;18.10;74.40
43320;DHT22;28914;48.722;9.332;2023-09-08T01:12:40;18.10;74.80
43320;DHT22;28914;48.722;9.332;2023-09-08T01:17:59;18.00;75.20
43320;DHT22;28914;48.722;9.332;2023-09-08T01:23:24;18.00;75.20
43320;DHT22;28914;48.722;9.332;2023-09-08T01:28:49;17.90;75.20
43320;DHT22;28914;48.722;9.332;2023-09-08T01:34:09;17.80;75.40
43320;DHT22;28914;48.722;9.332;2023-09-08T01:39:28;17.80;75.40
43320;DHT22;28914;48.722;9.332;2023-09-08T01:44:47;17.80;75.90
43320;DHT22;28914;48.722;9.332;2023-09-08T01:50:07;17.80;76.10
43320;DHT22;28914;48.722;9.332;2023-09-08T01:55:26;17.70;76.10
43320;DHT22;28914;48.722;9.332;2023-09-08T02:00:50;17.70;76.00
43320;DHT22;28914;48.722;9.332;2023-09-08T02:06:10;17.60;76.20
43320;DHT22;28914;48.722;9.332;2023-09-08T02:11:29;17.60;76.10
43320;DHT22;28914;48.722;9.332;2023-09-08T02:16:48;17.60;76.30
43320;DHT22;28914;48.722;9.332;2023-09-08T02:22:07;17.50;76.30
43320;DHT22;28914;48.722;9.332;2023-09-08T02:27:27;17.40;76.50
43320;DHT22;28914;48.722;9.332;2023-09-08T02:32:46;17.40;76.60
43320;DHT22;28914;48.722;9.332;2023-09-08T02:38:06;17.30;76.70
43320;DHT22;28914;48.722;9.332;2023-09-08T02:43:25;17.30;76.90
43320;DHT22;28914;48.722;9.332;2023-09-08T02:48:46;17.20;77.90
43320;DHT22;28914;48.722;9.332;2023-09-08T02:54:06;17.20;77.70
43320;DHT22;28914;48.722;9.332;2023-09-08T02:59:25;17.20;77.80
43320;DHT22;28914;48.722;9.332;2023-09-08T03:04:44;17.10;77.80
43320;DHT22;28914;48.722;9.332;2023-09-08T03:10:03;17.10;77.70
43320;DHT22;28914;48.722;9.332;2023-09-08T03:15:23;17.00;78.20
43320;DHT22;28914;48.722;9.332;2023-09-08T03:20:42;17.00;77.90
43320;DHT22;28914;48.722;9.332;2023-09-08T03:26:02;17.00;77.90
43320;DHT22;28914;48.722;9.332;2023-09-08T03:31:21;17.00;78.00
43320;DHT22;28914;48.722;9.332;2023-09-08T03:36:41;16.90;78.00
43320;DHT22;28914;48.722;9.332;2023-09-08T03:42:01;16.90;78.00
43320;DHT22;28914;48.722;9.332;2023-09-08T03:47:20;16.90;78.10
43320;DHT22;28914;48.722;9.332;2023-09-08T03:52:39;16.80;78.30
43320;DHT22;28914;48.722;9.332;2023-09-08T03:57:58;16.70;78.30
43320;DHT22;28914;48.722;9.332;2023-09-08T04:03:18;16.70;78.60
43320;DHT22;28914;48.722;9.332;2023-09-08T04:08:37;16.70;78.80
43320;DHT22;28914;48.722;9.332;2023-09-08T04:13:56;16.70;78.90
43320;DHT22;28914;48.722;9.332;2023-09-08T04:19:16;16.60;78.80
43320;DHT22;28914;48.722;9.332;2023-09-08T04:24:36;16.50;78.70
43320;DHT22;28914;48.722;9.332;2023-09-08T04:29:55;16.50;78.80
43320;DHT22;28914;48.722;9.332;2023-09-08T04:35:14;16.50;78.80
43320;DHT22;28914;48.722;9.332;2023-09-08T04:40:33;16.40;79.10
43320;DHT22;28914;48.722;9.332;2023-09-08T04:45:53;16.40;79.70
43320;DHT22;28914;48.722;9.332;2023-09-08T04:51:12;16.40;79.70
43320;DHT22;28914;48.722;9.332;2023-09-08T04:56:31;16.30;79.60
43320;DHT22;28914;48.722;9.332;2023-09-08T05:01:50;16.30;80.00
43320;DHT22;28914;48.722;9.332;2023-09-08T05:07:10;16.30;79.80
43320;DHT22;28914;48.722;9.332;2023-09-08T05:12:29;16.30;79.90
43320;DHT22;28914;48.722;9.332;2023-09-08T05:17:48;16.30;80.10
43320;DHT22;28914;48.722;9.332;2023-09-08T05:23:07;16.30;80.20
43320;DHT22;28914;48.722;9.332;2023-09-08T05:28:26;16.30;81.50
43320;DHT22;28914;48.722;9.332;2023-09-08T05:33:46;16.40;80.70
43320;DHT22;28914;48.722;9.332;2023-09-08T05:39:06;16.40;80.70
43320;DHT22;28914;48.722;9.332;2023-09-08T05:44:26;16.50;81.90
43320;DHT22;28914;48.722;9.332;2023-09-08T05:49:45;16.60;82.90
43320;DHT22;28914;48.722;9.332;2023-09-08T05:55:05;16.70;82.90
43320;DHT22;28914;48.722;9.332;2023-09-08T06:00:24;16.80;83.60
43320;DHT22;28914;48.722;9.332;2023-09-08T06:05:43;16.90;83.30
43320;DHT22;28914;48.722;9.332;2023-09-08T06:11:03;17.10;85.10
43320;DHT22;28914;48.722;9.332;2023-09-08T06:16:22;17.20;84.70
43320;DHT22;28914;48.722;9.332;2023-09-08T06:21:42;17.40;84.50
43320;DHT22;28914;48.722;9.332;2023-09-08T06:27:01;17.50;83.90
43320;DHT22;28914;48.722;9.332;2023-09-08T06:32:20;17.70;84.30
43320;DHT22;28914;48.722;9.332;2023-09-08T06:37:40;17.80;84.60
43320;DHT22;28914;48.722;9.332;2023-09-08T06:42:59;18.00;84.10
43320;DHT22;28914;48.722;9.332;2023-09-08T06:48:18;18.20;84.50
43320;DHT22;28914;48.722;9.332;2023-09-08T06:53:37;18.50;84.00
43320;DHT22;28914;48.722;9.332;2023-09-08T06:58:57;18.70;83.60
43320;DHT22;28914;48.722;9.332;2023-09-08T07:04:19;19.00;83.70
43320;DHT22;28914;48.722;9.332;2023-09-08T07:09:39;19.30;83.10
43320;DHT22;28914;48.722;9.332;2023-09-08T07:14:58;19.60;82.80
43320;DHT22;28914;48.722;9.332;2023-09-08T07:20:19;19.90;82.30
43320;DHT22;28914;48.722;9.332;2023-09-08T07:25:38;20.20;82.00
43320;DHT22;28914;48.722;9.332;2023-09-08T07:31:04;20.60;81.30
43320;DHT22;28914;48.722;9.332;2023-09-08T07:36:23;21.00;80.10
43320;DHT22;28914;48.722;9.332;2023-09-08T07:41:42;21.40;79.70
43320;DHT22;28914;48.722;9.332;2023-09-08T07:47:01;21.80;78.80
43320;DHT22;28914;48.722;9.332;2023-09-08T07:52:21;22.20;78.20
43320;DHT22;28914;48.722;9.332;2023-09-08T07:57:42;22.70;77.00
43320;DHT22;28914;48.722;9.332;2023-09-08T08:03:01;23.30;76.40
43320;DHT22;28914;48.722;9.332;2023-09-08T08:08:21;24.20;76.00
43320;DHT22;28914;48.722;9.332;2023-09-08T08:13:40;25.60;76.10
43320;DHT22;28914;48.722;9.332;2023-09-08T08:18:59;27.50;74.50
43320;DHT22;28914;48.722;9.332;2023-09-08T08:24:19;29.70;68.70
43320;DHT22;28914;48.722;9.332;2023-09-08T08:29:39;31.80;67.70
43320;DHT22;28914;48.722;9.332;2023-09-08T08:34:58;34.00;61.00
43320;DHT22;28914;48.722;9.332;2023-09-08T08:40:18;36.00;54.30
43320;DHT22;28914;48.722;9.332;2023-09-08T08:45:38;37.70;53.80
43320;DHT22;28914;48.722;9.332;2023-09-08T08:50:58;39.40;51.30
43320;DHT22;28914;48.722;9.332;2023-09-08T08:56:18;40.80;46.60
43320;DHT22;28914;48.722;9.332;2023-09-08T09:01:41;42.20;45.60
43320;DHT22;28914;48.722;9.332;2023-09-08T09:07:00;43.40;42.60
43320;DHT22;28914;48.722;9.332;2023-09-08T09:12:20;44.40;39.20
43320;DHT22;28914;48.722;9.332;2023-09-08T09:17:40;45.20;36.20
43320;DHT22;28914;48.722;9.332;2023-09-08T09:22:59;45.80;36.50
43320;DHT22;28914;48.722;9.332;2023-09-08T09:28:19;46.40;37.20
43320;DHT22;28914;48.722;9.332;2023-09-08T09:33:38;47.10;34.20
43320;DHT22;28914;48.722;9.332;2023-09-08T09:39:00;47.80;34.70
43320;DHT22;28914;48.722;9.332;2023-09-08T09:44:21;48.50;33.90
43320;DHT22;28914;48.722;9.332;2023-09-08T09:49:45;49.40;33.70
43320;DHT22;28914;48.722;9.332;2023-09-08T09:55:05;50.10;31.80
43320;DHT22;28914;48.722;9.332;2023-09-08T10:00:27;50.60;30.90
43320;DHT22;28914;48.722;9.332;2023-09-08T10:05:47;51.40;30.80
43320;DHT22;28914;48.722;9.332;2023-09-08T10:11:09;52.00;30.20
43320;DHT22;28914;48.722;9.332;2023-09-08T10:16:34;52.70;29.60
43320;DHT22;28914;48.722;9.332;2023-09-08T10:21:59;53.40;28.60
43320;DHT22;28914;48.722;9.332;2023-09-08T10:27:19;54.10;28.20
43320;DHT22;28914;48.722;9.332;2023-09-08T10:32:40;54.60;28.10
43320;DHT22;28914;48.722;9.332;2023-09-08T10:43:46;55.60;27.00
43320;DHT22;28914;48.722;9.332;2023-09-08T10:49:07;56.00;26.50
43320;DHT22;28914;48.722;9.332;2023-09-08T10:54:48;56.20;25.70
43320;DHT22;28914;48.722;9.332;2023-09-08T11:00:08;56.40;25.80
43320;DHT22;28914;48.722;9.332;2023-09-08T11:05:31;56.60;25.40
43320;DHT22;28914;48.722;9.332;2023-09-08T11:10:52;56.90;25.40
43320;DHT22;28914;48.722;9.332;2023-09-08T11:16:11;57.30;25.10
43320;DHT22;28914;48.722;9.332;2023-09-08T11:21:32;57.50;25.20
43320;DHT22;28914;48.722;9.332;2023-09-08T11:26:55;57.60;24.60
43320;DHT22;28914;48.722;9.332;2023-09-08T11:32:15;57.50;24.40
43320;DHT22;28914;48.722;9.332;2023-09-08T11:37:36;57.20;24.40
43320;DHT22;28914;48.722;9.332;2023-09-08T11:42:57;56.70;24.40
43320;DHT22;28914;48.722;9.332;2023-09-08T11:48:17;56.10;24.30
43320;DHT22;28914;48.722;9.332;2023-09-08T11:53:37;55.10;24.60
43320;DHT22;28914;48.722;9.332;2023-09-08T11:58:57;53.40;24.60
43320;DHT22;28914;48.722;9.332;2023-09-08T12:04:18;51.10;25.10
43320;DHT22;28914;48.722;9.332;2023-09-08T12:09:38;48.60;25.80
43320;DHT22;28914;48.722;9.332;2023-09-08T12:14:57;46.10;26.70
43320;DHT22;28914;48.722;9.332;2023-09-08T12:20:16;43.80;28.00
43320;DHT22;28914;48.722;9.332;2023-09-08T12:25:48;41.90;29.20
43320;DHT22;28914;48.722;9.332;2023-09-08T12:31:08;40.30;30.70
43320;DHT22;28914;48.722;9.332;2023-09-08T12:36:28;39.20;31.60
43320;DHT22;28914;48.722;9.332;2023-09-08T12:41:47;38.30;32.70
43320;DHT22;28914;48.722;9.332;2023-09-08T12:47:06;37.50;33.30
43320;DHT22;28914;48.722;9.332;2023-09-08T12:52:26;36.80;34.20
43320;DHT22;28914;48.722;9.332;2023-09-08T12:57:45;36.20;34.60
43320;DHT22;28914;48.722;9.332;2023-09-08T13:03:05;35.80;35.80
43320;DHT22;28914;48.722;9.332;2023-09-08T13:08:25;35.40;36.20
43320;DHT22;28914;48.722;9.332;2023-09-08T13:13:44;35.10;37.10
43320;DHT22;28914;48.722;9.332;2023-09-08T13:19:03;34.90;37.70
43320;DHT22;28914;48.722;9.332;2023-09-08T13:24:22;34.80;37.50
43320;DHT22;28914;48.722;9.332;2023-09-08T13:29:41;34.60;38.50
43320;DHT22;28914;48.722;9.332;2023-09-08T13:35:00;34.40;38.50
43320;DHT22;28914;48.722;9.332;2023-09-08T13:40:20;34.30;38.60
43320;DHT22;28914;48.722;9.332;2023-09-08T13:45:39;34.20;39.70
43320;DHT22;28914;48.722;9.332;2023-09-08T13:51:03;34.10;40.90
43320;DHT22;28914;48.722;9.332;2023-09-08T13:56:22;33.90;40.70
43320;DHT22;28914;48.722;9.332;2023-09-08T14:01:41;33.90;40.70
43320;DHT22;28914;48.722;9.332;2023-09-08T14:07:00;33.80;41.20
43320;DHT22;28914;48.722;9.332;2023-09-08T14:12:19;33.70;41.20
43320;DHT22;28914;48.722;9.332;2023-09-08T14:17:39;33.70;42.50
43320;DHT22;28914;48.722;9.332;2023-09-08T14:22:58;33.70;42.20
43320;DHT22;28914;48.722;9.332;2023-09-08T14:28:17;33.60;42.30
43320;DHT22;28914;48.722;9.332;2023-09-08T14:33:36;33.60;41.90
43320;DHT22;28914;48.722;9.332;2023-09-08T14:38:56;33.60;42.30
43320;DHT22;28914;48.722;9.332;2023-09-08T14:44:15;33.60;42.20
43320;DHT22;28914;48.722;9.332;2023-09-08T14:49:34;33.60;42.40
43320;DHT22;28914;48.722;9.332;2023-09-08T14:54:54;33.60;42.60
43320;DHT22;28914;48.722;9.332;2023-09-08T15:00:13;33.60;42.70
43320;DHT22;28914;48.722;9.332;2023-09-08T15:05:33;33.50;43.40
43320;DHT22;28914;48.722;9.332;2023-09-08T15:10:53;33.40;42.70
43320;DHT22;28914;48.722;9.332;2023-09-08T15:16:12;33.10;43.00
43320;DHT22;28914;48.722;9.332;2023-09-08T15:21:33;32.90;43.20
43320;DHT22;28914;48.722;9.332;2023-09-08T15:26:52;32.80;43.90
43320;DHT22;28914;48.722;9.332;2023-09-08T15:32:11;32.60;44.50
43320;DHT22;28914;48.722;9.332;2023-09-08T15:37:31;32.40;44.00
43320;DHT22;28914;48.722;9.332;2023-09-08T15:42:51;32.20;45.80
43320;DHT22;28914;48.722;9.332;2023-09-08T15:48:11;32.00;46.20
43320;DHT22;28914;48.722;9.332;2023-09-08T15:53:30;31.80;47.30
43320;DHT22;28914;48.722;9.332;2023-09-08T15:58:49;31.60;47.10
43320;DHT22;28914;48.722;9.332;2023-09-08T16:04:09;31.50;48.10
43320;DHT22;28914;48.722;9.332;2023-09-08T16:09:29;31.30;47.50
43320;DHT22;28914;48.722;9.332;2023-09-08T16:14:48;31.10;47.60
43320;DHT22;28914;48.722;9.332;2023-09-08T16:20:07;30.90;48.80
43320;DHT22;28914;48.722;9.332;2023-09-08T16:25:26;30.70;49.10
43320;DHT22;28914;48.722;9.332;2023-09-08T16:30:46;30.50;49.80
43320;DHT22;28914;48.722;9.332;2023-09-08T16:36:05;30.30;49.50
43320;DHT22;28914;48.722;9.332;2023-09-08T16:41:25;30.10;50.20
43320;DHT22;28914;48.722;9.332;2023-09-08T16:46:44;30.00;50.20
43320;DHT22;28914;48.722;9.332;2023-09-08T16:52:03;29.80;50.20
43320;DHT22;28914;48.722;9.332;2023-09-08T16:57:23;29.60;50.40
43320;DHT22;28914;48.722;9.332;2023-09-08T17:02:42;29.40;50.50
43320;DHT22;28914;48.722;9.332;2023-09-08T17:08:01;29.20;50.60
43320;DHT22;28914;48.722;9.332;2023-09-08T17:13:21;29.10;51.10
43320;DHT22;28914;48.722;9.332;2023-09-08T17:18:42;28.90;51.50
43320;DHT22;28914;48.722;9.332;2023-09-08T17:24:02;28.70;51.70
43320;DHT22;28914;48.722;9.332;2023-09-08T17:29:21;28.50;51.90
43320;DHT22;28914;48.722;9.332;2023-09-08T17:34:40;28.40;52.30
43320;DHT22;28914;48.722;9.332;2023-09-08T17:39:59;28.20;52.60
43320;DHT22;28914;48.722;9.332;2023-09-08T17:45:18;28.00;52.90
43320;DHT22;28914;48.722;9.332;2023-09-08T17:50:38;27.80;53.10
43320;DHT22;28914;48.722;9.332;2023-09-08T17:55:57;27.60;53.40
43320;DHT22;28914;48.722;9.332;2023-09-08T18:01:16;27.50;53.70
43320;DHT22;28914;48.722;9.332;2023-09-08T18:06:35;27.30;54.00
43320;DHT22;28914;48.722;9.332;2023-09-08T18:11:55;27.10;54.30
43320;DHT22;28914;48.722;9.332;2023-09-08T18:17:14;26.90;54.40
43320;DHT22;28914;48.722;9.332;2023-09-08T18:22:33;26.80;54.90
43320;DHT22;28914;48.722;9.332;2023-09-08T18:27:53;26.60;55.00
43320;DHT22;28914;48.722;9.332;2023-09-08T18:33:12;26.40;55.30
43320;DHT22;28914;48.722;9.332;2023-09-08T18:38:31;26.20;55.60
43320;DHT22;28914;48.722;9.332;2023-09-08T18:43:52;26.10;55.80
43320;DHT22;28914;48.722;9.332;2023-09-08T18:49:11;25.90;56.00
43320;DHT22;28914;48.722;9.332;2023-09-08T18:54:30;25.80;56.70
43320;DHT22;28914;48.722;9.332;2023-09-08T18:59:51;25.60;56.60
43320;DHT22;28914;48.722;9.332;2023-09-08T19:05:10;25.50;56.90
43320;DHT22;28914;48.722;9.332;2023-09-08T19:10:30;25.40;57.20
43320;DHT22;28914;48.722;9.332;2023-09-08T19:15:50;25.30;57.60
43320;DHT22;28914;48.722;9.332;2023-09-08T19:21:09;25.20;57.60
43320;DHT22;28914;48.722;9.332;2023-09-08T19:26:28;25.00;57.90
43320;DHT22;28914;48.722;9.332;2023-09-08T19:31:47;24.90;59.00
43320;DHT22;28914;48.722;9.332;2023-09-08T19:37:06;24.80;58.70
43320;DHT22;28914;48.722;9.332;2023-09-08T19:42:26;24.70;59.00
43320;DHT22;28914;48.722;9.332;2023-09-08T19:47:45;24.60;59.50
43320;DHT22;28914;48.722;9.332;2023-09-08T19:53:04;24.40;59.60
43320;DHT22;28914;48.722;9.332;2023-09-08T19:58:25;24.40;59.90
43320;DHT22;28914;48.722;9.332;2023-09-08T20:03:46;24.20;60.30
43320;DHT22;28914;48.722;9.332;2023-09-08T20:09:05;24.10;61.40
43320;DHT22;28914;48.722;9.332;2023-09-08T20:14:30;24.00;61.10
43320;DHT22;28914;48.722;9.332;2023-09-08T20:19:50;24.00;61.50
43320;DHT22;28914;48.722;9.332;2023-09-08T20:25:10;23.90;61.70
43320;DHT22;28914;48.722;9.332;2023-09-08T20:30:29;23.80;61.90
43320;DHT22;28914;48.722;9.332;2023-09-08T20:35:48;23.70;62.30
43320;DHT22;28914;48.722;9.332;2023-09-08T20:41:11;23.60;63.30
43320;DHT22;28914;48.722;9.332;2023-09-08T20:46:30;23.50;63.40
43320;DHT22;28914;48.722;9.332;2023-09-08T20:51:49;23.50;63.40
43320;DHT22;28914;48.722;9.332;2023-09-08T20:57:08;23.40;63.50
43320;DHT22;28914;48.722;9.332;2023-09-08T21:02:27;23.30;64.00
43320;DHT22;28914;48.722;9.332;2023-09-08T21:07:46;23.20;64.10
43320;DHT22;28914;48.722;9.332;2023-09-08T21:13:05;23.10;64.50
43320;DHT22;28914;48.722;9.332;2023-09-08T21:18:25;23.10;64.90
43320;DHT22;28914;48.722;9.332;2023-09-08T21:23:44;23.00;65.10
43320;DHT22;28914;48.722;9.332;2023-09-08T21:29:03;22.90;65.60
43320;DHT22;28914;48.722;9.332;2023-09-08T21:34:22;22.80;65.90
43320;DHT22;28914;48.722;9.332;2023-09-08T21:39:41;22.70;66.60
43320;DHT22;28914;48.722;9.332;2023-09-08T21:45:01;22.70;66.80
43320;DHT22;28914;48.722;9.332;2023-09-08T21:50:20;22.60;67.20
43320;DHT22;28914;48.722;9.332;2023-09-08T21:55:40;22.50;67.50
43320;DHT22;28914;48.722;9.332;2023-09-08T22:00:59;22.40;67.80
43320;DHT22;28914;48.722;9.332;2023-09-08T22:06:18;22.30;68.30
43320;DHT22;28914;48.722;9.332;2023-09-08T22:11:37;22.30;68.70
43320;DHT22;28914;48.722;9.332;2023-09-08T22:16:57;22.20;69.10
43320;DHT22;28914;48.722;9.332;2023-09-08T22:22:16;22.10;69.40
43320;DHT22;28914;48.722;9.332;2023-09-08T22:27:36;22.10;69.50
43320;DHT22;28914;48.722;9.332;2023-09-08T22:32:55;22.00;69.70
43320;DHT22;28914;48.722;9.332;2023-09-08T22:38:14;22.00;70.40
43320;DHT22;28914;48.722;9.332;2023-09-08T22:43:33;21.90;70.30
43320;DHT22;28914;48.722;9.332;2023-09-08T22:48:53;21.80;70.60
43320;DHT22;28914;48.722;9.332;2023-09-08T22:54:12;21.80;70.80
43320;DHT22;28914;48.722;9.332;2023-09-08T22:59:31;21.70;71.40
43320;DHT22;28914;48.722;9.332;2023-09-08T23:04:50;21.70;72.00
43320;DHT22;28914;48.722;9.332;2023-09-08T23:10:10;21.70;71.40
43320;DHT22;28914;48.722;9.332;2023-09-08T23:15:29;21.60;71.50
43320;DHT22;28914;48.722;9.332;2023-09-08T23:20:48;21.50;71.60
43320;DHT22;28914;48.722;9.332;2023-09-08T23:26:07;21.50;71.70
43320;DHT22;28914;48.722;9.332;2023-09-08T23:31:27;21.40;72.00
43320;DHT22;28914;48.722;9.332;2023-09-08T23:36:46;21.30;72.70
43320;DHT22;28914;48.722;9.332;2023-09-08T23:42:06;21.20;72.40
43320;DHT22;28914;48.722;9.332;2023-09-08T23:47:25;21.20;72.80
43320;DHT22;28914;48.722;9.332;2023-09-08T23:52:44;21.10;72.90
43320;DHT22;28914;48.722;9.332;2023-09-08T23:58:04;21.10;73.20
